Time;durP1;ratioP1;P1;durP2;ratioP2;P2;SDS_P1;SDS_P2;PMS_P1;PMS_P2;Temp;Humidity;BMP_temperature;BMP_pressure;BME280_temperature;BME280_humidity;BME280_pressure;Samples;Min_cycle;Max_cycle;Signal;HPM_P1;HPM_P2
2021/12/21 00:00:55;;;;;;;16.00;5.50;;;;;;;;;;5050431;28;20393;-70
2021/12/21 00:03:20;;;;;;;11.73;5.60;;;;;;;;;;5046408;28;20036;-68
2021/12/21 00:05:46;;;;;;;13.20;5.43;;;;;;;;;;5027707;28;20027;-68
2021/12/21 00:08:12;;;;;;;11.90;4.30;;;;;;;;;;5032635;28;20028;-69
2021/12/21 00:10:39;;;;;;;15.65;5.47;;;;;;;;;;5049886;28;20120;-68
2021/12/21 00:18:06;;;;;;;19.85;5.30;;;;;;;;;;5046507;28;20109;-68
2021/12/21 00:20:46;;;;;;;14.20;4.47;;;;;;;;;;5050441;28;20029;-69
2021/12/21 00:23:47;;;;;;;13.57;4.72;;;;;;;;;;5036501;28;20504;-68
2021/12/21 00:26:05;;;;;;;23.45;5.13;;;;;;;;;;5039877;28;20036;-72
2021/12/21 00:28:35;;;;;;;16.23;4.68;;;;;;;;;;5050622;28;20083;-68
2021/12/21 00:31:01;;;;;;;;;;;;;;;;;;5049574;28;20052;-68
2021/12/21 00:33:26;;;;;;;23.67;4.43;;;;;;;;;;5113014;22;19960;-66
2021/12/21 00:35:51;;;;;;;18.38;4.25;;;;;;;;;;5049100;28;20458;-66
2021/12/21 00:38:16;;;;;;;9.43;3.67;;;;;;;;;;5048701;28;20024;-66
2021/12/21 00:40:41;;;;;;;17.45;6.70;;;;;;;;;;5053460;28;20016;-66
2021/12/21 00:43:07;;;;;;;14.63;5.25;;;;;;;;;;5054297;28;20341;-66
2021/12/21 00:45:32;;;;;;;13.82;5.25;;;;;;;;;;5035713;28;20414;-66
2021/12/21 00:47:57;;;;;;;12.25;4.53;;;;;;;;;;5053590;28;20017;-66
2021/12/21 00:50:23;;;;;;;11.13;4.55;;;;;;;;;;5052829;28;20088;-66
2021/12/21 00:52:50;;;;;;;14.93;4.20;;;;;;;;;;5054080;28;20436;-66
2021/12/21 00:55:16;;;;;;;10.88;4.45;;;;;;;;;;5053368;28;20108;-66
2021/12/21 00:57:41;;;;;;;15.15;4.75;;;;;;;;;;5035262;28;20112;-66
2021/12/21 01:00:07;;;;;;;12.68;4.53;;;;;;;;;;5053469;28;20381;-66
2021/12/21 01:02:33;;;;;;;9.60;3.97;;;;;;;;;;5053638;28;20473;-66
2021/12/21 01:04:59;;;;;;;14.20;4.75;;;;;;;;;;5053216;28;20021;-66
2021/12/21 01:07:33;;;;;;;13.13;4.90;;;;;;;;;;5051621;28;20029;-66
2021/12/21 01:17:33;;;;;;;10.55;4.30;;;;;;;;;;5045376;28;20485;-66
2021/12/21 01:20:09;;;;;;;14.02;4.18;;;;;;;;;;5052585;28;20021;-66
2021/12/21 01:25:38;;;;;;;15.43;5.28;;;;;;;;;;5052832;28;21064;-66
2021/12/21 01:30:43;;;;;;;13.07;4.53;;;;;;;;;;5053045;28;20028;-66
2021/12/21 01:35:49;;;;;;;11.10;4.07;;;;;;;;;;5046365;28;20116;-66
2021/12/21 01:38:32;;;;;;;12.93;4.70;;;;;;;;;;5052840;28;20028;-66
2021/12/21 01:51:19;;;;;;;9.52;4.28;;;;;;;;;;5052211;28;20079;-66
2021/12/21 01:53:45;;;;;;;11.57;4.40;;;;;;;;;;5034347;28;20432;-66
2021/12/21 01:56:10;;;;;;;10.60;4.30;;;;;;;;;;5052838;28;20021;-66
2021/12/21 01:58:37;;;;;;;13.18;4.80;;;;;;;;;;5053075;28;20104;-66
2021/12/21 02:01:03;;;;;;;8.43;3.90;;;;;;;;;;5052536;28;20425;-66
2021/12/21 02:03:28;;;;;;;12.75;4.28;;;;;;;;;;5053359;28;20017;-66
2021/12/21 02:05:54;;;;;;;11.80;3.92;;;;;;;;;;5052214;28;20119;-66
2021/12/21 02:08:19;;;;;;;10.52;4.25;;;;;;;;;;5051994;28;20071;-66
2021/12/21 02:10:44;;;;;;;13.23;4.90;;;;;;;;;;5052397;28;20615;-66
2021/12/21 02:13:09;;;;;;;11.15;4.78;;;;;;;;;;5035009;28;20028;-66
2021/12/21 02:15:35;;;;;;;12.88;3.92;;;;;;;;;;5052217;28;20074;-66
2021/12/21 02:18:33;;;;;;;13.13;4.57;;;;;;;;;;5052620;28;20013;-66
2021/12/21 02:20:55;;;;;;;14.38;4.90;;;;;;;;;;5051512;28;20031;-66
2021/12/21 02:23:24;;;;;;;11.90;4.40;;;;;;;;;;5052168;28;20537;-66
2021/12/21 02:30:50;;;;;;;8.57;3.83;;;;;;;;;;5051898;28;20548;-66
2021/12/21 02:33:16;;;;;;;15.02;4.07;;;;;;;;;;5051685;28;20488;-66
2021/12/21 02:35:41;;;;;;;17.17;4.03;;;;;;;;;;5051608;28;20025;-66
2021/12/21 02:38:07;;;;;;;8.45;3.60;;;;;;;;;;5052330;28;20031;-66
2021/12/21 02:40:32;;;;;;;12.55;3.65;;;;;;;;;;5051592;28;20028;-66
2021/12/21 02:42:57;;;;;;;16.13;3.90;;;;;;;;;;5051732;28;20017;-66
2021/12/21 02:45:23;;;;;;;11.38;4.28;;;;;;;;;;5051805;28;20389;-66
2021/12/21 02:47:48;;;;;;;10.68;3.42;;;;;;;;;;5052356;28;20035;-66
2021/12/21 02:50:13;;;;;;;14.30;4.22;;;;;;;;;;5051449;28;20025;-66
2021/12/21 02:52:38;;;;;;;13.25;4.03;;;;;;;;;;5051970;28;20021;-66
2021/12/21 02:55:04;;;;;;;13.27;3.47;;;;;;;;;;5051689;28;20708;-66
2021/12/21 02:57:29;;;;;;;12.73;4.10;;;;;;;;;;5051918;28;20029;-66
2021/12/21 02:59:54;;;;;;;10.77;4.13;;;;;;;;;;5041697;28;20009;-66
2021/12/21 03:02:20;;;;;;;15.00;4.55;;;;;;;;;;5049888;28;20033;-66
2021/12/21 03:04:45;;;;;;;10.10;3.92;;;;;;;;;;5051577;28;20028;-66
2021/12/21 03:09:43;;;;;;;9.60;4.00;;;;;;;;;;5051402;28;20063;-66
2021/12/21 03:12:29;;;;;;;9.18;3.85;;;;;;;;;;5050926;28;20052;-66
2021/12/21 03:14:54;;;;;;;10.45;3.67;;;;;;;;;;5051480;28;20025;-66
2021/12/21 03:17:19;;;;;;;10.07;3.50;;;;;;;;;;5051132;28;20048;-66
2021/12/21 03:19:45;;;;;;;6.97;3.45;;;;;;;;;;5051093;28;20532;-66
2021/12/21 03:22:10;;;;;;;10.98;4.13;;;;;;;;;;5050369;28;20088;-66
2021/12/21 03:24:36;;;;;;;9.68;3.83;;;;;;;;;;5051173;28;20025;-66
2021/12/21 03:27:01;;;;;;;15.35;3.90;;;;;;;;;;5050880;28;20032;-66
2021/12/21 03:29:27;;;;;;;16.55;3.85;;;;;;;;;;5051069;28;20029;-66
2021/12/21 03:31:52;;;;;;;11.82;3.35;;;;;;;;;;5050605;28;20035;-66
2021/12/21 03:34:18;;;;;;;12.43;4.13;;;;;;;;;;5050593;28;20037;-66
2021/12/21 03:36:43;;;;;;;13.52;3.70;;;;;;;;;;5051183;28;20108;-66
2021/12/21 03:39:15;;;;;;;12.18;3.70;;;;;;;;;;5050972;28;20388;-66
2021/12/21 03:41:45;;;;;;;12.30;4.28;;;;;;;;;;5050328;28;20025;-66
2021/12/21 03:44:10;;;;;;;12.20;3.60;;;;;;;;;;5051067;28;20032;-66
2021/12/21 03:46:37;;;;;;;9.38;3.80;;;;;;;;;;5050910;28;20033;-66
2021/12/21 03:49:19;;;;;;;7.78;3.28;;;;;;;;;;5050856;28;20017;-66
2021/12/21 03:51:45;;;;;;;8.45;3.42;;;;;;;;;;5050093;28;20079;-66
2021/12/21 03:54:10;;;;;;;7.72;3.08;;;;;;;;;;5050687;28;20032;-66
2021/12/21 03:56:40;;;;;;;14.68;3.60;;;;;;;;;;5049458;28;20082;-66
2021/12/21 03:59:05;;;;;;;;;;;;;;;;;;5050893;28;20024;-66
2021/12/21 04:01:30;;;;;;;14.18;3.92;;;;;;;;;;5032027;28;19915;-66
2021/12/21 04:03:56;;;;;;;14.10;3.40;;;;;;;;;;5050447;28;20036;-66
2021/12/21 04:06:21;;;;;;;10.93;3.78;;;;;;;;;;5049949;28;20362;-66
2021/12/21 04:08:46;;;;;;;12.70;3.60;;;;;;;;;;5049989;28;20021;-66
2021/12/21 04:11:11;;;;;;;9.43;3.50;;;;;;;;;;5049945;28;20021;-66
2021/12/21 04:13:36;;;;;;;13.82;3.80;;;;;;;;;;5050172;28;20384;-66
2021/12/21 04:16:04;;;;;;;14.23;2.95;;;;;;;;;;5050117;28;20025;-66
2021/12/21 04:18:34;;;;;;;9.88;3.60;;;;;;;;;;5050358;28;20091;-66
2021/12/21 04:20:59;;;;;;;12.80;3.67;;;;;;;;;;5049631;28;20059;-66
2021/12/21 04:23:24;;;;;;;8.43;3.50;;;;;;;;;;5050325;28;20056;-66
2021/12/21 04:25:50;;;;;;;13.60;3.53;;;;;;;;;;5050082;28;20024;-66
2021/12/21 04:28:15;;;;;;;15.50;3.95;;;;;;;;;;5050251;28;20111;-66
2021/12/21 04:30:40;;;;;;;9.95;3.60;;;;;;;;;;5049762;28;20025;-66
2021/12/21 04:33:05;;;;;;;8.68;3.33;;;;;;;;;;5049881;28;20025;-66
2021/12/21 04:35:30;;;;;;;9.68;3.92;;;;;;;;;;5032742;28;20380;-66
2021/12/21 04:38:12;;;;;;;15.13;4.07;;;;;;;;;;5049999;28;20044;-66
2021/12/21 04:40:45;;;;;;;11.60;4.38;;;;;;;;;;5049483;28;20035;-66
2021/12/21 04:43:10;;;;;;;11.43;4.43;;;;;;;;;;5050303;28;20021;-66
2021/12/21 04:45:36;;;;;;;11.57;4.38;;;;;;;;;;5049817;28;20558;-66
2021/12/21 04:48:01;;;;;;;17.17;3.58;;;;;;;;;;5049356;28;20443;-66
2021/12/21 04:50:26;;;;;;;7.25;3.63;;;;;;;;;;5049299;28;20021;-66
2021/12/21 04:52:51;;;;;;;9.40;3.22;;;;;;;;;;5049485;28;20048;-66
2021/12/21 04:55:16;;;;;;;8.23;3.17;;;;;;;;;;5050003;28;20107;-66
2021/12/21 04:57:43;;;;;;;8.82;3.75;;;;;;;;;;5049384;28;20088;-66
2021/12/21 05:00:09;;;;;;;6.82;3.03;;;;;;;;;;5049205;28;20029;-66
2021/12/21 05:02:34;;;;;;;7.22;3.20;;;;;;;;;;5049597;28;20478;-66
2021/12/21 05:05:00;;;;;;;7.55;3.28;;;;;;;;;;5049925;28;20025;-66
2021/12/21 05:07:28;;;;;;;12.88;3.70;;;;;;;;;;5049792;28;20033;-66
2021/12/21 05:09:57;;;;;;;7.43;3.30;;;;;;;;;;5049513;28;20032;-66
2021/12/21 05:12:22;;;;;;;7.72;3.30;;;;;;;;;;5049730;28;20074;-66
2021/12/21 05:14:48;;;;;;;9.90;3.00;;;;;;;;;;5032203;28;20071;-66
2021/12/21 05:17:13;;;;;;;14.40;3.50;;;;;;;;;;5049591;28;20025;-66
2021/12/21 05:19:38;;;;;;;7.63;2.92;;;;;;;;;;5049439;28;20020;-66
2021/12/21 05:22:04;;;;;;;13.48;2.97;;;;;;;;;;5049500;28;20397;-66
2021/12/21 05:24:29;;;;;;;13.40;3.53;;;;;;;;;;5049688;28;20104;-66
2021/12/21 05:26:54;;;;;;;8.27;3.30;;;;;;;;;;5052886;28;20028;-66
2021/12/21 05:29:20;;;;;;;12.88;3.40;;;;;;;;;;5053364;28;20022;-66
2021/12/21 05:31:45;;;;;;;15.00;3.95;;;;;;;;;;5052986;28;20095;-66
2021/12/21 05:34:10;;;;;;;12.50;3.13;;;;;;;;;;5052741;28;20420;-66
2021/12/21 05:36:36;;;;;;;10.48;3.42;;;;;;;;;;5053126;28;20017;-66
2021/12/21 05:39:04;;;;;;;9.50;4.00;;;;;;;;;;5053271;28;20461;-66
2021/12/21 05:44:14;;;;;;;9.43;4.50;;;;;;;;;;5053218;28;20627;-66
2021/12/21 05:46:40;;;;;;;14.68;5.07;;;;;;;;;;5053065;28;20021;-66
2021/12/21 05:49:05;;;;;;;16.92;5.22;;;;;;;;;;5052563;28;20612;-66
2021/12/21 05:51:30;;;;;;;11.25;3.97;;;;;;;;;;5051994;28;20396;-66
2021/12/21 05:53:55;;;;;;;14.77;3.30;;;;;;;;;;5052752;28;20021;-66
2021/12/21 05:56:21;;;;;;;15.00;3.33;;;;;;;;;;5052550;28;20108;-66
2021/12/21 05:58:47;;;;;;;11.20;3.60;;;;;;;;;;5051742;28;20020;-66
2021/12/21 06:01:12;;;;;;;13.07;3.40;;;;;;;;;;5051703;28;20543;-66
2021/12/21 06:03:38;;;;;;;12.80;3.03;;;;;;;;;;5052869;28;20032;-66
2021/12/21 06:06:03;;;;;;;11.98;2.95;;;;;;;;;;5052266;28;20025;-66
2021/12/21 06:08:28;;;;;;;8.38;3.05;;;;;;;;;;5052997;28;20531;-66
2021/12/21 06:10:55;;;;;;;7.38;2.88;;;;;;;;;;5051321;28;20445;-66
2021/12/21 06:24:42;;;;;;;10.85;3.33;;;;;;;;;;5038324;28;20028;-66
2021/12/21 06:26:34;;;;;;;9.52;3.50;;;;;;;;;;5051432;28;20051;-66
2021/12/21 06:28:59;;;;;;;10.77;3.40;;;;;;;;;;5052076;28;20503;-66
2021/12/21 06:31:24;;;;;;;12.88;3.58;;;;;;;;;;5051463;28;20029;-66
2021/12/21 06:33:50;;;;;;;12.13;3.90;;;;;;;;;;5051659;28;20523;-66
2021/12/21 06:36:15;;;;;;;10.63;3.40;;;;;;;;;;5051950;28;20024;-66
2021/12/21 06:38:40;;;;;;;12.48;3.15;;;;;;;;;;5044595;28;20014;-66
2021/12/21 06:41:06;;;;;;;9.02;3.55;;;;;;;;;;5051325;28;20087;-66
2021/12/21 06:43:32;;;;;;;7.03;2.97;;;;;;;;;;5051712;28;20025;-66
2021/12/21 06:46:06;;;;;;;15.65;3.50;;;;;;;;;;5033943;28;20396;-66
2021/12/21 06:51:26;;;;;;;8.73;3.00;;;;;;;;;;5051713;28;20079;-66
2021/12/21 06:53:52;;;;;;;9.43;3.33;;;;;;;;;;5051881;28;20465;-66
2021/12/21 06:56:18;;;;;;;16.38;3.85;;;;;;;;;;5050082;28;20024;-66
2021/12/21 06:58:44;;;;;;;7.00;2.97;;;;;;;;;;5055111;28;20033;-66
2021/12/21 07:01:09;;;;;;;5.35;3.00;;;;;;;;;;5048954;28;20360;-66
2021/12/21 07:03:35;;;;;;;8.38;3.45;;;;;;;;;;5051285;28;20024;-66
2021/12/21 07:06:01;;;;;;;12.65;3.63;;;;;;;;;;5051537;28;20092;-66
2021/12/21 07:08:29;;;;;;;10.23;3.88;;;;;;;;;;5051388;28;20036;-66
2021/12/21 07:11:09;;;;;;;12.98;3.28;;;;;;;;;;5050543;28;20505;-66
2021/12/21 07:19:02;;;;;;;9.52;3.67;;;;;;;;;;5032315;28;20059;-66
2021/12/21 07:21:27;;;;;;;9.23;3.65;;;;;;;;;;5032313;28;20045;-66
2021/12/21 07:23:52;;;;;;;8.90;3.92;;;;;;;;;;5051010;28;20021;-66
2021/12/21 07:26:18;;;;;;;8.30;3.38;;;;;;;;;;5051742;28;20049;-66
2021/12/21 07:28:43;;;;;;;8.43;3.88;;;;;;;;;;5050658;28;20047;-66
2021/12/21 07:31:08;;;;;;;19.95;3.55;;;;;;;;;;5049990;28;20039;-66
2021/12/21 07:33:34;;;;;;;10.73;3.33;;;;;;;;;;5050905;28;20032;-66
2021/12/21 07:35:59;;;;;;;16.13;3.72;;;;;;;;;;5050927;28;20605;-66
2021/12/21 07:38:26;;;;;;;6.05;3.13;;;;;;;;;;5050882;28;20381;-66
2021/12/21 07:40:51;;;;;;;9.98;4.03;;;;;;;;;;5050022;28;20117;-67
2021/12/21 07:43:16;;;;;;;14.27;4.30;;;;;;;;;;5050582;28;20152;-65
2021/12/21 07:45:41;;;;;;;13.02;4.13;;;;;;;;;;5050291;28;20458;-66
2021/12/21 07:48:07;;;;;;;18.33;3.75;;;;;;;;;;5050251;28;20099;-67
2021/12/21 07:50:32;;;;;;;10.45;4.25;;;;;;;;;;5049898;28;20098;-67
2021/12/21 07:53:00;;;;;;;11.20;3.63;;;;;;;;;;5050603;28;20013;-67
2021/12/21 07:55:25;;;;;;;10.35;3.97;;;;;;;;;;5050061;28;20092;-67
2021/12/21 07:57:50;;;;;;;16.90;4.45;;;;;;;;;;5050290;28;20127;-67
2021/12/21 08:00:16;;;;;;;16.27;6.65;;;;;;;;;;5049737;28;20021;-67
2021/12/21 08:02:41;;;;;;;21.63;7.90;;;;;;;;;;5049640;28;20053;-66
2021/12/21 08:05:08;;;;;;;20.88;6.63;;;;;;;;;;5032232;28;20035;-67
2021/12/21 08:07:37;;;;;;;17.00;6.57;;;;;;;;;;5050149;28;20016;-67
2021/12/21 08:10:17;;;;;;;19.42;5.53;;;;;;;;;;5050028;28;20029;-67
2021/12/21 08:12:43;;;;;;;10.52;4.38;;;;;;;;;;5050171;28;20487;-67
2021/12/21 08:15:08;;;;;;;15.45;4.65;;;;;;;;;;5050469;28;20104;-67
2021/12/21 08:17:33;;;;;;;10.25;4.60;;;;;;;;;;5048628;28;20119;-67
2021/12/21 08:19:59;;;;;;;12.98;4.80;;;;;;;;;;5043439;28;20370;-67
2021/12/21 08:22:24;;;;;;;10.30;3.47;;;;;;;;;;5036243;28;20092;-67
2021/12/21 08:24:49;;;;;;;11.00;3.35;;;;;;;;;;5032076;28;20099;-65
2021/12/21 08:27:14;;;;;;;14.15;4.22;;;;;;;;;;5049922;28;20535;-65
2021/12/21 08:29:39;;;;;;;10.65;3.67;;;;;;;;;;5049770;28;20029;-65
2021/12/21 08:32:05;;;;;;;8.65;3.45;;;;;;;;;;5049189;28;20151;-65
2021/12/21 08:34:30;;;;;;;9.30;2.83;;;;;;;;;;5049769;28;20029;-65
2021/12/21 08:36:56;;;;;;;7.87;3.00;;;;;;;;;;5049568;28;20024;-65
2021/12/21 08:39:23;;;;;;;8.98;4.28;;;;;;;;;;5046522;28;20278;-65
2021/12/21 08:41:55;;;;;;;9.32;3.30;;;;;;;;;;5047243;28;20017;-65
2021/12/21 08:44:21;;;;;;;14.55;3.83;;;;;;;;;;5047849;28;20067;-65
2021/12/21 08:46:47;;;;;;;8.38;3.40;;;;;;;;;;5047193;28;20017;-65
2021/12/21 08:49:12;;;;;;;14.55;3.92;;;;;;;;;;5046881;28;20028;-65
2021/12/21 08:51:37;;;;;;;12.33;4.37;;;;;;;;;;5049564;28;20032;-65
2021/12/21 08:54:02;;;;;;;11.53;4.57;;;;;;;;;;5051498;28;20779;-65
2021/12/21 08:56:27;;;;;;;14.52;4.95;;;;;;;;;;5046615;28;20267;-66
2021/12/21 08:58:52;;;;;;;11.25;4.70;;;;;;;;;;5047640;28;20435;-66
2021/12/21 09:01:18;;;;;;;9.00;4.70;;;;;;;;;;5049986;28;20032;-66
2021/12/21 09:03:44;;;;;;;11.03;4.57;;;;;;;;;;5051553;28;20361;-66
2021/12/21 09:06:09;;;;;;;11.35;4.05;;;;;;;;;;5051151;28;20305;-66
2021/12/21 09:08:34;;;;;;;11.07;4.63;;;;;;;;;;5050509;28;20496;-66
2021/12/21 09:11:03;;;;;;;9.10;4.17;;;;;;;;;;5050772;28;20123;-66
2021/12/21 09:13:29;;;;;;;8.33;3.73;;;;;;;;;;5051385;28;20267;-66
2021/12/21 09:15:55;;;;;;;7.70;3.95;;;;;;;;;;5050673;28;20055;-66
2021/12/21 09:18:20;;;;;;;11.80;4.28;;;;;;;;;;5051139;28;20059;-66
2021/12/21 09:20:45;;;;;;;14.43;4.67;;;;;;;;;;5051381;28;20182;-66
2021/12/21 09:23:11;;;;;;;8.30;4.32;;;;;;;;;;5058501;28;20255;-66
2021/12/21 09:25:37;;;;;;;11.93;5.40;;;;;;;;;;5050583;28;20032;-66
2021/12/21 09:28:02;;;;;;;11.93;5.45;;;;;;;;;;5051590;28;20033;-66
2021/12/21 09:30:28;;;;;;;11.23;5.30;;;;;;;;;;5052003;28;20033;-66
2021/12/21 09:32:54;;;;;;;12.57;3.70;;;;;;;;;;5056135;28;20033;-66
2021/12/21 09:35:19;;;;;;;14.07;4.60;;;;;;;;;;5049613;28;20025;-66
2021/12/21 09:37:45;;;;;;;10.73;3.80;;;;;;;;;;5052564;28;20127;-66
2021/12/21 09:40:12;;;;;;;12.05;4.65;;;;;;;;;;5057822;28;20102;-65
2021/12/21 09:42:37;;;;;;;11.07;4.80;;;;;;;;;;5049795;28;20052;-65
2021/12/21 09:45:03;;;;;;;8.85;4.55;;;;;;;;;;5055545;28;20485;-68
2021/12/21 09:47:29;;;;;;;14.90;3.92;;;;;;;;;;5049571;28;20076;-67
2021/12/21 09:49:54;;;;;;;11.13;4.35;;;;;;;;;;5050914;28;20505;-68
2021/12/21 09:52:21;;;;;;;13.38;3.85;;;;;;;;;;5050302;28;20120;-65
2021/12/21 09:54:47;;;;;;;8.80;4.40;;;;;;;;;;5050412;28;20413;-66
2021/12/21 09:57:16;;;;;;;15.10;4.47;;;;;;;;;;5050012;28;20021;-67
2021/12/21 09:59:42;;;;;;;14.40;4.80;;;;;;;;;;5050777;28;20028;-67
2021/12/21 10:02:07;;;;;;;12.48;4.90;;;;;;;;;;5050379;28;20025;-67
2021/12/21 10:04:43;;;;;;;9.60;4.43;;;;;;;;;;5055598;28;20016;-67
2021/12/21 10:07:09;;;;;;;19.05;7.05;;;;;;;;;;5052536;28;20053;-67
2021/12/21 10:09:36;;;;;;;11.45;5.63;;;;;;;;;;5050744;28;20535;-67
2021/12/21 10:12:01;;;;;;;11.85;5.47;;;;;;;;;;5049583;28;20028;-67
2021/12/21 10:14:26;;;;;;;8.57;4.88;;;;;;;;;;5049301;28;20459;-67
2021/12/21 10:17:05;;;;;;;10.10;4.57;;;;;;;;;;5050310;28;20115;-67
2021/12/21 10:19:30;;;;;;;14.43;4.43;;;;;;;;;;5049952;28;20350;-67
2021/12/21 10:21:55;;;;;;;11.77;4.97;;;;;;;;;;5049926;28;20032;-67
2021/12/21 10:24:22;;;;;;;12.90;4.68;;;;;;;;;;5055134;28;20024;-66
2021/12/21 10:26:47;;;;;;;14.85;5.13;;;;;;;;;;5050065;28;20032;-67
2021/12/21 10:29:15;;;;;;;14.85;5.65;;;;;;;;;;5053683;28;20020;-65
2021/12/21 10:31:42;;;;;;;13.93;6.03;;;;;;;;;;5035713;28;20020;-65
2021/12/21 10:34:11;;;;;;;14.65;5.18;;;;;;;;;;5053597;28;20167;-65
2021/12/21 10:36:40;;;;;;;10.80;5.05;;;;;;;;;;5051826;28;20013;-68
2021/12/21 10:39:05;;;;;;;11.55;4.68;;;;;;;;;;5055967;28;20029;-68
2021/12/21 10:41:34;;;;;;;13.32;5.82;;;;;;;;;;5050054;28;20024;-65
2021/12/21 10:44:01;;;;;;;16.83;5.38;;;;;;;;;;5062864;28;20017;-65
2021/12/21 10:46:27;;;;;;;11.57;5.00;;;;;;;;;;5050206;28;20108;-65
2021/12/21 10:49:03;;;;;;;11.65;4.57;;;;;;;;;;5049802;28;20092;-65
2021/12/21 10:51:28;;;;;;;9.95;4.13;;;;;;;;;;5049369;28;20074;-66
2021/12/21 10:53:53;;;;;;;9.80;2.93;;;;;;;;;;5055859;28;20104;-65
2021/12/21 10:56:18;;;;;;;10.55;4.05;;;;;;;;;;5060661;28;20773;-65
2021/12/21 10:58:44;;;;;;;11.50;3.63;;;;;;;;;;5036918;28;20024;-65
2021/12/21 11:01:11;;;;;;;18.88;5.50;;;;;;;;;;5044041;28;20021;-65
2021/12/21 11:03:44;;;;;;;11.50;3.95;;;;;;;;;;5046040;28;20102;-65
2021/12/21 11:06:14;;;;;;;8.40;4.25;;;;;;;;;;5049667;28;20028;-65
2021/12/21 11:08:40;;;;;;;11.95;3.72;;;;;;;;;;5049795;28;20021;-65
2021/12/21 11:11:10;;;;;;;9.38;3.95;;;;;;;;;;5063966;28;20024;-65
2021/12/21 11:13:35;;;;;;;12.10;3.75;;;;;;;;;;5050924;28;20032;-66
2021/12/21 11:16:04;;;;;;;11.40;3.55;;;;;;;;;;5051611;28;20028;-65
2021/12/21 11:18:29;;;;;;;6.28;3.55;;;;;;;;;;5050164;28;20535;-65
2021/12/21 11:20:56;;;;;;;9.35;3.78;;;;;;;;;;5050752;28;20021;-65
2021/12/21 11:23:22;;;;;;;6.82;3.35;;;;;;;;;;5050631;28;20101;-67
2021/12/21 11:25:49;;;;;;;9.18;4.18;;;;;;;;;;5062712;28;20020;-67
2021/12/21 11:28:15;;;;;;;6.80;3.65;;;;;;;;;;5059526;28;20017;-67
2021/12/21 11:30:41;;;;;;;11.18;3.90;;;;;;;;;;5058391;28;20107;-67
2021/12/21 11:33:07;;;;;;;8.38;3.88;;;;;;;;;;5060931;28;20112;-67
2021/12/21 11:38:01;;;;;;;16.05;3.95;;;;;;;;;;5056015;28;20021;-67
2021/12/21 11:40:28;;;;;;;11.95;4.47;;;;;;;;;;5054780;28;20025;-68
2021/12/21 11:43:01;;;;;;;12.93;4.05;;;;;;;;;;5055444;28;20024;-66
2021/12/21 11:45:34;;;;;;;10.32;4.32;;;;;;;;;;5053964;28;20040;-66
2021/12/21 11:48:06;;;;;;;9.32;3.67;;;;;;;;;;5049400;28;20032;-66
2021/12/21 11:50:32;;;;;;;7.65;3.63;;;;;;;;;;5061793;28;20025;-66
2021/12/21 11:53:02;;;;;;;7.32;3.58;;;;;;;;;;5047981;28;20029;-66
2021/12/21 11:55:27;;;;;;;;;;;;;;;;;;5049547;28;20117;-66
2021/12/21 11:57:54;;;;;;;9.10;3.75;;;;;;;;;;5050667;28;19991;-66
2021/12/21 12:00:19;;;;;;;14.43;4.50;;;;;;;;;;5050048;28;20063;-64
2021/12/21 12:02:45;;;;;;;11.20;4.50;;;;;;;;;;5053799;28;20108;-64
2021/12/21 12:05:22;;;;;;;9.63;4.47;;;;;;;;;;5059309;28;20032;-64
2021/12/21 12:08:05;;;;;;;15.15;4.88;;;;;;;;;;5048020;28;20069;-65
2021/12/21 12:10:31;;;;;;;11.45;4.53;;;;;;;;;;5049366;28;20025;-65
2021/12/21 12:13:06;;;;;;;11.88;4.28;;;;;;;;;;5046036;28;20127;-64
2021/12/21 12:15:40;;;;;;;13.73;4.13;;;;;;;;;;5050198;28;20025;-64
2021/12/21 12:18:05;;;;;;;12.30;4.60;;;;;;;;;;5050277;28;20378;-64
2021/12/21 12:20:30;;;;;;;14.35;4.70;;;;;;;;;;5047029;28;20013;-65
2021/12/21 12:23:08;;;;;;;9.45;4.18;;;;;;;;;;5060685;28;20021;-65
2021/12/21 12:25:34;;;;;;;13.35;3.65;;;;;;;;;;5053815;28;20078;-65
2021/12/21 12:28:01;;;;;;;10.15;4.32;;;;;;;;;;5056030;28;21821;-65
2021/12/21 12:30:27;;;;;;;9.23;4.25;;;;;;;;;;5054613;28;20021;-64
2021/12/21 12:32:53;;;;;;;12.90;4.15;;;;;;;;;;5050631;28;20021;-64
2021/12/21 12:35:19;;;;;;;9.43;3.85;;;;;;;;;;5054925;28;20043;-65
2021/12/21 12:37:50;;;;;;;14.52;3.50;;;;;;;;;;5048585;28;20097;-65
2021/12/21 12:40:18;;;;;;;10.32;3.67;;;;;;;;;;5048249;28;20013;-65
2021/12/21 12:42:52;;;;;;;9.45;4.03;;;;;;;;;;5045996;28;20401;-65
2021/12/21 12:45:20;;;;;;;8.82;3.22;;;;;;;;;;5049163;28;20032;-64
2021/12/21 12:47:47;;;;;;;9.10;3.13;;;;;;;;;;5052717;28;20017;-65
2021/12/21 12:50:14;;;;;;;7.93;3.30;;;;;;;;;;5049167;28;20104;-64
2021/12/21 12:52:47;;;;;;;8.60;3.45;;;;;;;;;;5050393;28;20048;-65
2021/12/21 12:55:13;;;;;;;7.20;3.10;;;;;;;;;;5049200;28;20104;-65
2021/12/21 12:57:39;;;;;;;17.52;3.92;;;;;;;;;;5055671;28;20103;-66
2021/12/21 13:00:10;;;;;;;11.77;4.13;;;;;;;;;;5052712;28;20020;-65
2021/12/21 13:02:36;;;;;;;13.07;4.32;;;;;;;;;;5047397;28;20014;-64
2021/12/21 13:05:09;;;;;;;9.95;3.38;;;;;;;;;;5051936;28;20037;-66
2021/12/21 13:07:34;;;;;;;10.40;3.22;;;;;;;;;;5053137;28;20196;-64
2021/12/21 13:10:01;;;;;;;9.80;3.78;;;;;;;;;;5060010;28;20037;-65
2021/12/21 13:12:26;;;;;;;9.73;3.42;;;;;;;;;;5052321;28;20472;-64
2021/12/21 13:14:52;;;;;;;7.50;3.83;;;;;;;;;;5051923;28;20096;-64
2021/12/21 13:17:17;;;;;;;9.23;3.78;;;;;;;;;;5048830;28;20060;-65
2021/12/21 13:19:43;;;;;;;7.67;3.80;;;;;;;;;;5052774;28;20079;-66
2021/12/21 13:22:08;;;;;;;8.10;3.60;;;;;;;;;;5062137;28;20275;-65
2021/12/21 13:24:36;;;;;;;12.75;4.60;;;;;;;;;;5050170;28;20274;-66
2021/12/21 13:27:08;;;;;;;13.65;3.70;;;;;;;;;;5050065;28;20048;-65
2021/12/21 13:29:35;;;;;;;16.48;3.90;;;;;;;;;;5048994;28;20017;-66
2021/12/21 13:32:05;;;;;;;14.15;3.65;;;;;;;;;;5055235;28;20448;-66
2021/12/21 13:34:30;;;;;;;10.68;3.53;;;;;;;;;;5060323;28;20016;-65
2021/12/21 13:36:57;;;;;;;8.82;3.40;;;;;;;;;;5059454;28;20035;-66
2021/12/21 13:39:26;;;;;;;9.77;3.70;;;;;;;;;;5057753;28;20071;-65
2021/12/21 13:41:53;;;;;;;11.30;3.47;;;;;;;;;;5050621;28;20512;-65
2021/12/21 13:44:26;;;;;;;6.40;3.15;;;;;;;;;;5058593;28;20369;-66
2021/12/21 13:46:51;;;;;;;12.10;4.05;;;;;;;;;;5050999;28;20055;-66
2021/12/21 13:49:16;;;;;;;10.23;3.83;;;;;;;;;;5051810;28;20025;-66
2021/12/21 13:51:52;;;;;;;9.07;4.78;;;;;;;;;;5054034;28;20448;-65
2021/12/21 13:54:18;;;;;;;14.68;4.00;;;;;;;;;;5060890;28;20028;-65
2021/12/21 13:56:44;;;;;;;12.65;4.55;;;;;;;;;;5052098;28;20021;-65
2021/12/21 13:59:10;;;;;;;11.45;4.30;;;;;;;;;;5052617;28;20385;-66
2021/12/21 14:01:36;;;;;;;7.65;3.75;;;;;;;;;;5059905;28;20094;-66
2021/12/21 14:04:04;;;;;;;12.15;4.53;;;;;;;;;;5051798;28;20024;-65
2021/12/21 14:06:30;;;;;;;19.65;4.55;;;;;;;;;;5050649;28;20021;-66
2021/12/21 14:08:57;;;;;;;12.73;3.95;;;;;;;;;;5050554;28;20029;-66
2021/12/21 14:11:26;;;;;;;9.07;4.10;;;;;;;;;;5051594;28;20074;-66
2021/12/21 14:13:53;;;;;;;9.38;4.10;;;;;;;;;;5052527;28;20021;-66
2021/12/21 14:16:19;;;;;;;10.98;4.15;;;;;;;;;;5051553;28;20033;-65
2021/12/21 14:18:46;;;;;;;15.75;5.00;;;;;;;;;;5051348;28;20017;-65
2021/12/21 14:21:19;;;;;;;9.88;4.20;;;;;;;;;;5059973;28;20013;-66
2021/12/21 14:23:48;;;;;;;13.93;4.68;;;;;;;;;;5051926;28;20025;-65
2021/12/21 14:26:22;;;;;;;13.70;5.28;;;;;;;;;;5052304;28;20516;-65
2021/12/21 14:28:47;;;;;;;10.90;4.00;;;;;;;;;;5051943;28;20397;-65
2021/12/21 14:31:13;;;;;;;19.60;4.73;;;;;;;;;;5051836;28;20024;-65
2021/12/21 14:33:48;;;;;;;12.93;5.10;;;;;;;;;;5051694;28;20276;-65
2021/12/21 14:36:15;;;;;;;8.88;3.92;;;;;;;;;;5052137;28;20024;-65
2021/12/21 14:38:49;;;;;;;9.68;4.75;;;;;;;;;;5059774;28;20013;-66
2021/12/21 14:41:22;;;;;;;7.97;4.40;;;;;;;;;;5050137;28;20519;-65
2021/12/21 14:43:47;;;;;;;12.95;4.40;;;;;;;;;;5049817;28;20017;-65
2021/12/21 14:46:19;;;;;;;17.20;4.30;;;;;;;;;;5051883;28;20370;-65
2021/12/21 14:48:55;;;;;;;13.25;4.18;;;;;;;;;;5051722;28;20013;-66
2021/12/21 14:51:20;;;;;;;21.45;4.57;;;;;;;;;;5048236;28;20021;-66
2021/12/21 14:53:55;;;;;;;15.90;4.60;;;;;;;;;;5047061;28;20033;-65
2021/12/21 14:56:30;;;;;;;10.68;4.05;;;;;;;;;;5043631;28;20303;-66
2021/12/21 14:58:56;;;;;;;13.43;4.72;;;;;;;;;;5050070;28;20354;-66
2021/12/21 15:01:21;;;;;;;18.45;4.40;;;;;;;;;;5064644;28;20063;-66
2021/12/21 15:03:47;;;;;;;14.60;4.95;;;;;;;;;;5045914;28;20068;-66
2021/12/21 15:06:12;;;;;;;13.45;5.10;;;;;;;;;;5028214;28;20028;-66
2021/12/21 15:08:37;;;;;;;9.10;3.90;;;;;;;;;;5029364;28;20029;-65
2021/12/21 15:11:02;;;;;;;25.17;4.43;;;;;;;;;;5032761;28;20403;-65
2021/12/21 15:13:27;;;;;;;10.63;3.70;;;;;;;;;;5040913;28;20274;-65
2021/12/21 15:15:53;;;;;;;11.13;3.67;;;;;;;;;;5047863;28;20028;-65
2021/12/21 15:18:18;;;;;;;10.65;3.72;;;;;;;;;;5057467;28;20349;-65
2021/12/21 15:20:43;;;;;;;10.15;3.60;;;;;;;;;;5048582;28;20025;-66
2021/12/21 15:23:09;;;;;;;9.18;3.95;;;;;;;;;;5049123;28;20416;-65
2021/12/21 15:25:35;;;;;;;9.57;3.70;;;;;;;;;;5048189;28;20021;-65
2021/12/21 15:28:00;;;;;;;12.25;3.72;;;;;;;;;;5049463;28;20538;-66
2021/12/21 15:30:26;;;;;;;12.35;3.58;;;;;;;;;;5047897;28;20144;-65
2021/12/21 15:32:52;;;;;;;8.48;3.95;;;;;;;;;;5064246;28;20057;-66
2021/12/21 15:35:18;;;;;;;6.97;3.55;;;;;;;;;;5053562;28;20072;-65
2021/12/21 15:37:45;;;;;;;12.10;3.50;;;;;;;;;;5055930;28;20017;-65